createdAt,value
2018-01-10T00:02:01.964Z,65.80
2018-01-10T00:04:29.448Z,67.23
2018-01-10T00:06:57.028Z,78.80
2018-01-10T00:09:25.296Z,75.83
2018-01-10T00:11:53.571Z,63.20
2018-01-10T00:14:21.847Z,60.73
2018-01-10T00:16:50.099Z,64.20
2018-01-10T00:19:17.589Z,58.73
2018-01-10T00:21:45.876Z,56.00
2018-01-10T00:24:13.376Z,60.70
2018-01-10T00:26:40.858Z,65.80
2018-01-10T00:29:08.946Z,68.13
2018-01-10T00:31:37.912Z,60.40
2018-01-10T00:34:05.411Z,61.50
2018-01-10T00:36:32.934Z,63.80
2018-01-10T00:39:00.515Z,63.20
2018-01-10T00:41:28.017Z,64.17
2018-01-10T00:58:10.658Z,62.10
2018-01-10T01:00:38.251Z,63.47
2018-01-10T01:03:06.507Z,64.03
2018-01-10T01:05:34.096Z,63.57
2018-01-10T01:08:01.580Z,64.00
2018-01-10T01:10:29.079Z,62.40
2018-01-10T01:12:56.660Z,61.17
2018-01-10T01:15:24.235Z,59.08
2018-01-10T01:17:51.745Z,58.77
2018-01-10T01:20:19.279Z,62.53
2018-01-10T01:22:46.768Z,60.90
2018-01-10T01:25:14.348Z,62.60
2018-01-10T01:27:42.636Z,66.90
2018-01-10T01:30:10.901Z,65.03
2018-01-10T01:32:39.171Z,66.93
2018-01-10T01:35:07.522Z,63.87
2018-01-10T01:37:35.129Z,66.47
2018-01-10T01:40:02.616Z,66.10
2018-01-10T01:42:30.115Z,64.47
2018-01-10T01:44:57.704Z,68.83
2018-01-10T01:47:28.776Z,66.53
2018-01-10T01:49:56.307Z,68.93
2018-01-10T01:52:23.800Z,68.70
2018-01-10T01:54:51.284Z,66.80
2018-01-10T01:57:19.548Z,68.10
2018-01-10T01:59:47.025Z,73.00
2018-01-10T02:02:14.540Z,68.27
2018-01-10T02:04:42.027Z,73.50
2018-01-10T02:07:09.553Z,71.10
2018-01-10T02:09:37.039Z,71.57
2018-01-10T02:12:04.654Z,73.87
2018-01-10T02:14:32.160Z,74.17
2018-01-10T02:16:59.679Z,81.17
2018-01-10T02:19:27.175Z,75.83
2018-01-10T02:21:54.687Z,74.18
2018-01-10T02:24:22.236Z,75.53
2018-01-10T02:26:51.158Z,71.62
2018-01-10T02:29:18.651Z,75.28
2018-01-10T02:31:46.261Z,70.80
2018-01-10T02:34:13.820Z,78.70
2018-01-10T02:36:41.367Z,79.30
2018-01-10T02:39:09.622Z,80.30
2018-01-10T02:41:37.896Z,75.87
2018-01-10T02:44:05.402Z,78.05
2018-01-10T02:46:32.963Z,79.47
2018-01-10T02:49:00.474Z,70.97
2018-01-10T02:51:28.736Z,75.05
2018-01-10T02:53:56.225Z,76.62
2018-01-10T02:56:25.113Z,82.03
2018-01-10T02:58:53.367Z,73.37
2018-01-10T03:01:20.871Z,73.68
2018-01-10T03:03:48.434Z,75.57
2018-01-10T03:06:15.972Z,75.00
2018-01-10T03:08:44.240Z,83.97
2018-01-10T03:11:12.512Z,77.25
2018-01-10T03:13:40.010Z,76.80
2018-01-10T03:16:07.555Z,73.55
2018-01-10T03:18:35.040Z,75.22
2018-01-10T03:21:02.574Z,77.93
2018-01-10T03:23:30.077Z,77.72
2018-01-10T03:25:57.589Z,77.95
2018-01-10T03:28:25.136Z,76.03
2018-01-10T03:30:53.419Z,77.22
2018-01-10T03:33:20.910Z,74.70
2018-01-10T03:35:48.442Z,76.28
2018-01-10T03:38:15.996Z,80.57
2018-01-10T03:40:43.512Z,73.18
2018-01-10T03:43:11.010Z,78.47
2018-01-10T03:45:39.271Z,76.73
2018-01-10T03:48:06.755Z,75.90
2018-01-10T03:50:34.265Z,76.57
2018-01-10T03:53:01.870Z,75.45
2018-01-10T03:55:29.379Z,69.72
2018-01-10T03:57:56.870Z,74.45
2018-01-10T04:00:25.150Z,70.60
2018-01-10T04:02:52.677Z,73.03
2018-01-10T04:05:20.176Z,75.23
2018-01-10T04:07:47.690Z,68.20
2018-01-10T04:10:15.200Z,72.43
2018-01-10T04:12:42.691Z,72.37
2018-01-10T04:15:10.211Z,69.72
2018-01-10T04:17:37.716Z,66.13
2018-01-10T04:20:05.275Z,73.37
2018-01-10T04:22:32.750Z,74.33
2018-01-10T04:25:00.250Z,74.30
2018-01-10T04:27:27.771Z,67.57
2018-01-10T04:29:56.756Z,70.57
2018-01-10T04:32:24.250Z,67.80
2018-01-10T04:34:51.772Z,73.72
2018-01-10T04:37:19.372Z,68.47
2018-01-10T04:39:46.879Z,67.90
2018-01-10T04:42:14.373Z,63.05
2018-01-10T04:44:41.859Z,64.27
2018-01-10T04:47:09.402Z,72.93
2018-01-10T04:49:37.681Z,64.05
2018-01-10T04:52:06.024Z,65.32
2018-01-10T04:54:33.527Z,63.15
2018-01-10T04:57:01.035Z,69.70
2018-01-10T04:59:28.546Z,64.73
2018-01-10T05:01:56.094Z,72.00
2018-01-10T05:04:24.371Z,88.07
2018-01-10T05:06:52.648Z,71.40
2018-01-10T05:09:20.166Z,74.37
2018-01-10T05:11:47.665Z,73.25
2018-01-10T05:14:15.928Z,65.55
2018-01-10T05:16:44.197Z,74.12
2018-01-10T05:19:11.691Z,71.45
2018-01-10T05:21:39.236Z,67.68
2018-01-10T05:24:06.799Z,76.50
2018-01-10T05:26:34.355Z,70.37
2018-01-10T05:29:03.540Z,66.53
2018-01-10T05:31:31.848Z,67.43
2018-01-10T05:33:59.493Z,72.45
2018-01-10T05:36:27.005Z,64.30
2018-01-10T05:38:54.526Z,61.42
2018-01-10T05:41:22.043Z,64.15
2018-01-10T05:43:50.339Z,63.90
2018-01-10T05:46:18.605Z,64.90
2018-01-10T05:48:46.855Z,65.78
2018-01-10T05:51:14.465Z,68.18
2018-01-10T05:53:42.020Z,62.80
2018-01-10T05:56:09.718Z,63.05
2018-01-10T05:58:37.219Z,57.55
2018-01-10T06:01:04.725Z,58.83
2018-01-10T06:03:32.289Z,58.10
2018-01-10T06:05:59.804Z,62.08
2018-01-10T06:08:28.089Z,60.60
2018-01-10T06:10:56.353Z,59.25
2018-01-10T06:13:24.651Z,58.38
2018-01-10T06:15:52.140Z,61.65
2018-01-10T06:18:19.675Z,63.78
2018-01-10T06:20:47.169Z,62.85
2018-01-10T06:23:14.676Z,62.03
2018-01-10T06:25:42.953Z,68.93
2018-01-10T06:28:11.207Z,61.90
2018-01-10T06:30:38.720Z,62.03
2018-01-10T06:33:06.237Z,56.80
2018-01-10T06:35:34.510Z,58.13
2018-01-10T06:38:03.378Z,57.60
2018-01-10T06:40:30.884Z,59.70
2018-01-10T06:42:58.374Z,66.07
2018-01-10T06:45:25.891Z,61.47
2018-01-10T06:47:53.408Z,57.92
2018-01-10T06:50:20.899Z,52.15
2018-01-10T06:52:49.185Z,55.00
2018-01-10T06:55:16.745Z,50.65
2018-01-10T06:57:44.319Z,51.13
2018-01-10T07:00:11.830Z,50.67
2018-01-10T07:02:39.426Z,50.78
2018-01-10T07:05:06.953Z,49.78
2018-01-10T07:07:35.235Z,49.63
2018-01-10T07:10:02.730Z,48.95
2018-01-10T07:12:30.255Z,53.20
2018-01-10T07:14:58.531Z,49.80
2018-01-10T07:17:26.070Z,49.17
2018-01-10T07:19:53.571Z,52.62
2018-01-10T07:22:21.084Z,60.35
2018-01-10T07:24:48.588Z,51.75
2018-01-10T07:27:16.573Z,55.30
2018-01-10T07:29:44.128Z,54.90
2018-01-10T07:32:11.689Z,55.88
2018-01-10T07:34:39.183Z,61.00
2018-01-10T07:37:06.680Z,61.78
2018-01-10T07:39:34.976Z,63.45
2018-01-10T07:42:02.489Z,63.75
2018-01-10T07:44:30.084Z,63.55
2018-01-10T07:46:57.644Z,65.68
2018-01-10T07:49:25.167Z,61.20
2018-01-10T07:51:53.510Z,64.90
2018-01-10T07:54:21.047Z,60.28
2018-01-10T07:56:48.604Z,63.80
2018-01-10T07:59:16.887Z,65.85
2018-01-10T08:01:44.388Z,61.65
2018-01-10T08:04:11.888Z,60.67
2018-01-10T08:06:39.415Z,60.63
2018-01-10T08:09:07.053Z,61.92
2018-01-10T08:11:34.575Z,60.28
2018-01-10T08:14:02.835Z,58.53
2018-01-10T08:16:31.119Z,59.72
2018-01-10T08:18:59.391Z,68.40
2018-01-10T08:21:27.689Z,61.72
2018-01-10T08:23:55.256Z,62.75
2018-01-10T08:26:22.815Z,59.50
2018-01-10T08:28:50.319Z,55.10
2018-01-10T08:31:17.829Z,62.00
2018-01-10T08:33:45.320Z,58.25
2018-01-10T08:36:12.946Z,57.83
2018-01-10T08:38:40.504Z,59.17
2018-01-10T08:41:08.111Z,73.78
2018-01-10T08:43:35.703Z,68.17
2018-01-10T08:46:03.960Z,69.83
2018-01-10T08:48:31.478Z,62.55
2018-01-10T08:50:59.021Z,61.33
2018-01-10T08:53:26.547Z,65.63
2018-01-10T08:55:54.858Z,70.62
2018-01-10T08:58:22.409Z,59.80
2018-01-10T09:00:50.677Z,66.77
2018-01-10T09:03:18.957Z,69.27
2018-01-10T09:05:47.216Z,55.73
2018-01-10T09:08:14.761Z,58.07
2018-01-10T09:10:42.277Z,56.63
2018-01-10T09:13:09.794Z,55.30
2018-01-10T09:15:38.078Z,52.83
2018-01-10T09:18:06.335Z,52.47
2018-01-10T09:20:34.624Z,53.43
2018-01-10T09:23:02.885Z,54.87
2018-01-10T09:25:30.397Z,52.90
2018-01-10T09:27:57.936Z,49.37
2018-01-10T09:30:25.495Z,54.63
2018-01-10T09:32:53.757Z,52.13
2018-01-10T09:35:21.327Z,62.03
2018-01-10T09:37:49.611Z,58.40
2018-01-10T09:40:17.872Z,54.00
2018-01-10T09:42:46.131Z,57.80
2018-01-10T09:45:14.668Z,58.00
2018-01-10T09:47:42.286Z,58.67
2018-01-10T09:50:09.928Z,56.57
2018-01-10T09:52:37.428Z,55.30
2018-01-10T09:55:04.992Z,52.30
2018-01-10T09:57:32.499Z,55.30
2018-01-10T09:59:59.999Z,53.70
2018-01-10T10:02:27.500Z,60.17
2018-01-10T10:04:55.000Z,50.67
2018-01-10T10:07:22.589Z,56.37
2018-01-10T10:09:50.075Z,51.70
2018-01-10T10:12:17.585Z,54.90
2018-01-10T10:14:45.834Z,51.50
2018-01-10T10:17:13.338Z,49.93
2018-01-10T10:19:40.840Z,50.50
2018-01-10T10:22:08.343Z,52.13
2018-01-10T10:24:36.632Z,50.27
2018-01-10T10:27:04.891Z,53.97
2018-01-10T10:29:33.141Z,53.83
2018-01-10T10:32:00.730Z,47.80
2018-01-10T10:34:29.072Z,52.47
2018-01-10T10:36:56.682Z,48.70
2018-01-10T10:39:24.179Z,49.67
2018-01-10T10:41:51.678Z,48.77
2018-01-10T10:44:19.969Z,51.57
2018-01-10T10:46:48.233Z,50.10
2018-01-10T10:49:16.504Z,63.07
2018-01-10T10:51:44.771Z,66.37
2018-01-10T10:54:12.252Z,67.53
2018-01-10T10:56:40.533Z,68.17
2018-01-10T10:59:08.106Z,63.90
2018-01-10T11:01:35.652Z,65.77
2018-01-10T11:04:03.903Z,67.27
2018-01-10T11:06:31.496Z,63.33
2018-01-10T11:08:58.996Z,68.63
2018-01-10T11:11:26.513Z,61.03
2018-01-10T11:13:54.006Z,69.70
2018-01-10T11:16:22.633Z,62.97
2018-01-10T11:18:50.934Z,57.63
2018-01-10T11:21:18.481Z,55.10
2018-01-10T11:23:46.735Z,61.23
2018-01-10T11:26:14.322Z,58.30
2018-01-10T11:28:42.801Z,64.23
2018-01-10T11:31:11.068Z,63.20
2018-01-10T11:33:39.435Z,65.47
2018-01-10T11:36:06.927Z,66.90
2018-01-10T11:38:34.441Z,68.83
2018-01-10T11:41:01.940Z,68.40
2018-01-10T11:43:29.426Z,65.50
2018-01-10T11:45:56.984Z,68.57
2018-01-10T11:48:24.460Z,63.97
2018-01-10T11:50:52.057Z,58.73
2018-01-10T11:53:20.362Z,57.73
2018-01-10T11:55:47.855Z,51.80
2018-01-10T11:58:15.470Z,53.20
2018-01-10T12:00:42.959Z,44.03
2018-01-10T12:03:10.460Z,47.13
2018-01-10T12:05:37.948Z,43.23
2018-01-10T12:08:05.462Z,37.83
2018-01-10T12:10:32.953Z,38.70
2018-01-10T12:13:01.227Z,43.67
2018-01-10T12:15:29.496Z,42.30
2018-01-10T12:17:57.755Z,46.20
2018-01-10T12:20:25.250Z,40.70
2018-01-10T12:22:52.739Z,42.17
2018-01-10T12:25:20.253Z,44.13
2018-01-10T12:27:48.517Z,43.00
2018-01-10T12:30:16.026Z,43.60
2018-01-10T12:32:43.509Z,47.20
2018-01-10T12:35:11.051Z,44.47
2018-01-10T12:37:38.563Z,44.00
2018-01-10T12:40:06.845Z,46.60
2018-01-10T12:42:35.094Z,48.37
2018-01-10T12:45:02.577Z,45.27
2018-01-10T12:47:30.838Z,45.33
2018-01-10T12:49:59.095Z,46.87
2018-01-10T12:52:26.604Z,45.40
2018-01-10T12:54:54.105Z,45.03
2018-01-10T12:57:21.619Z,44.63
2018-01-10T12:59:49.108Z,45.30
2018-01-10T13:02:16.627Z,45.80
2018-01-10T13:04:44.127Z,45.57
2018-01-10T13:07:11.665Z,45.47
2018-01-10T13:09:39.161Z,44.80
2018-01-10T13:12:06.675Z,44.33
2018-01-10T13:14:34.159Z,49.60
2018-01-10T13:17:01.656Z,53.33
2018-01-10T13:19:29.909Z,54.70
2018-01-10T13:21:57.417Z,61.00
2018-01-10T13:24:24.931Z,57.83
2018-01-10T13:26:52.445Z,63.53
2018-01-10T13:29:19.964Z,70.70
2018-01-10T13:31:47.461Z,80.50
2018-01-10T13:34:15.020Z,79.37
2018-01-10T13:36:42.526Z,77.80
2018-01-10T13:39:10.027Z,78.73
2018-01-10T13:41:37.528Z,72.97
2018-01-10T13:44:05.047Z,68.07
2018-01-10T13:46:32.564Z,64.73
2018-01-10T13:49:00.065Z,61.53
2018-01-10T13:51:27.569Z,62.80
2018-01-10T13:53:55.063Z,59.23
2018-01-10T13:56:22.575Z,82.73
2018-01-10T13:58:50.140Z,64.43
2018-01-10T14:01:17.657Z,63.87
2018-01-10T14:03:45.218Z,51.60
2018-01-10T14:06:12.718Z,61.73
2018-01-10T14:08:40.212Z,66.27
2018-01-10T14:11:08.500Z,65.67
2018-01-10T14:13:35.991Z,66.13
2018-01-10T14:16:03.490Z,63.17
2018-01-10T14:18:30.982Z,62.03
2018-01-10T14:20:58.497Z,64.63
2018-01-10T14:23:26.001Z,60.57
2018-01-10T14:25:53.518Z,58.50
2018-01-10T14:28:21.117Z,55.53
2018-01-10T14:30:48.617Z,60.17
2018-01-10T14:33:16.123Z,61.80
2018-01-10T14:35:44.642Z,58.37
2018-01-10T14:38:12.260Z,53.13
2018-01-10T14:40:40.521Z,54.53
2018-01-10T14:43:08.011Z,56.37
2018-01-10T14:45:35.521Z,54.90
2018-01-10T14:48:03.024Z,55.27
2018-01-10T14:50:30.558Z,52.00
2018-01-10T14:52:58.136Z,52.80
2018-01-10T14:55:25.648Z,51.10
2018-01-10T14:57:53.146Z,53.03
2018-01-10T15:00:21.416Z,54.83
2018-01-10T15:02:49.683Z,51.73
2018-01-10T15:05:17.172Z,54.90
2018-01-10T15:07:44.693Z,67.13
2018-01-10T15:10:12.305Z,57.17
2018-01-10T15:12:39.880Z,60.20
2018-01-10T15:15:07.381Z,65.83
2018-01-10T15:17:34.889Z,64.90
2018-01-10T15:20:02.416Z,67.60
2018-01-10T15:22:30.728Z,54.23
2018-01-10T15:24:58.259Z,80.50
2018-01-10T15:27:25.759Z,77.83
2018-01-10T15:29:53.260Z,72.07
2018-01-10T15:32:20.780Z,90.83
2018-01-10T15:34:48.303Z,83.03
2018-01-10T15:37:16.023Z,85.57
2018-01-10T15:39:43.612Z,79.80
2018-01-10T15:42:11.206Z,76.93
2018-01-10T15:44:38.703Z,72.10
2018-01-10T15:47:06.320Z,75.17
2018-01-10T15:49:33.852Z,71.17
2018-01-10T15:52:02.127Z,75.23
2018-01-10T15:54:30.436Z,70.67
2018-01-10T15:56:57.976Z,73.47
2018-01-10T15:59:25.515Z,71.53
2018-01-10T16:01:53.820Z,71.17
2018-01-10T16:04:21.314Z,67.73
2018-01-10T16:06:49.056Z,71.40
2018-01-10T16:09:16.585Z,73.30
2018-01-10T16:11:44.874Z,75.93
2018-01-10T16:14:12.412Z,72.87
2018-01-10T16:16:40.680Z,73.20
2018-01-10T16:19:08.958Z,73.27
2018-01-10T16:21:37.212Z,72.93
2018-01-10T16:24:04.742Z,77.13
2018-01-10T16:26:32.276Z,66.53
2018-01-10T16:28:59.792Z,72.70
2018-01-10T16:31:27.299Z,69.70
2018-01-10T16:33:54.789Z,69.10
2018-01-10T16:36:22.295Z,69.83
2018-01-10T16:38:50.564Z,70.27
2018-01-10T16:41:18.829Z,98.10
2018-01-10T16:43:46.318Z,81.50
2018-01-10T16:46:13.823Z,82.60
2018-01-10T16:48:41.318Z,73.93
2018-01-10T16:51:09.582Z,66.13
2018-01-10T16:53:37.080Z,70.67
2018-01-10T16:56:04.597Z,62.33
2018-01-10T16:58:32.857Z,63.80
2018-01-10T17:01:00.362Z,60.10
2018-01-10T17:03:27.847Z,65.90
2018-01-10T17:05:55.360Z,57.40
2018-01-10T17:08:23.639Z,57.07
2018-01-10T17:10:51.922Z,65.20
2018-01-10T17:13:20.173Z,61.27
2018-01-10T17:15:47.716Z,59.17
2018-01-10T17:18:15.237Z,59.67
2018-01-10T17:20:42.741Z,68.53
2018-01-10T17:23:10.348Z,61.57
2018-01-10T17:25:37.883Z,54.73
2018-01-10T17:28:06.213Z,50.37
2018-01-10T17:30:33.716Z,50.40
2018-01-10T17:33:01.222Z,52.17
2018-01-10T17:35:28.741Z,53.03
2018-01-10T17:37:56.316Z,53.40
2018-01-10T17:40:23.812Z,53.43
2018-01-10T17:42:51.326Z,52.17
2018-01-10T17:45:18.846Z,52.13
2018-01-10T17:47:47.413Z,57.13
2018-01-10T17:50:15.025Z,58.00
2018-01-10T17:52:43.388Z,62.93
2018-01-10T17:55:11.703Z,58.70
2018-01-10T17:57:39.302Z,56.23
2018-01-10T18:00:06.802Z,59.40
2018-01-10T18:02:34.304Z,55.70
2018-01-10T18:05:01.794Z,54.87
2018-01-10T18:07:30.216Z,52.43
2018-01-10T18:09:57.720Z,48.77
2018-01-10T18:12:25.269Z,52.27
2018-01-10T18:14:52.927Z,57.23
2018-01-10T18:17:20.440Z,49.67
2018-01-10T18:19:47.936Z,54.73
2018-01-10T18:22:15.431Z,51.57
2018-01-10T18:24:43.711Z,50.50
2018-01-10T18:27:11.215Z,50.97
2018-01-10T18:29:38.709Z,53.93
2018-01-10T18:32:06.200Z,52.73
2018-01-10T18:34:34.508Z,56.40
2018-01-10T18:37:02.008Z,59.47
2018-01-10T18:39:29.504Z,51.77
2018-01-10T18:41:57.019Z,54.00
2018-01-10T18:44:24.512Z,56.30
2018-01-10T18:46:52.047Z,57.00
2018-01-10T18:49:19.534Z,56.80
2018-01-10T18:51:47.050Z,57.07
2018-01-10T18:54:14.566Z,57.97
2018-01-10T18:56:42.134Z,63.03
2018-01-10T18:59:09.628Z,58.37
2018-01-10T19:01:37.135Z,63.80
2018-01-10T19:04:04.626Z,63.80
2018-01-10T19:06:32.119Z,64.90
2018-01-10T19:08:59.632Z,65.97
2018-01-10T19:11:27.158Z,63.50
2018-01-10T19:13:55.419Z,68.97
2018-01-10T19:16:23.755Z,68.67
2018-01-10T19:18:51.217Z,55.43
2018-01-10T19:21:18.723Z,74.60
2018-01-10T19:23:46.334Z,72.43
2018-01-10T19:26:13.848Z,70.57
2018-01-10T19:28:42.150Z,59.33
2018-01-10T19:31:09.656Z,64.13
2018-01-10T19:33:37.159Z,110.87
2018-01-10T19:36:04.666Z,77.77
2018-01-10T19:38:32.188Z,70.30
2018-01-10T19:40:59.689Z,60.73
2018-01-10T19:43:27.195Z,60.27
2018-01-10T19:45:54.699Z,58.60
2018-01-10T19:48:22.191Z,56.27
2018-01-10T19:50:50.493Z,54.13
2018-01-10T19:53:18.012Z,57.77
2018-01-10T19:55:46.273Z,52.03
2018-01-10T19:58:13.784Z,54.83
2018-01-10T20:00:41.300Z,53.97
2018-01-10T20:03:08.790Z,57.90
2018-01-10T20:05:36.291Z,54.87
2018-01-10T20:08:03.816Z,51.90
2018-01-10T20:10:31.332Z,51.70
2018-01-10T20:12:58.851Z,52.67
2018-01-10T20:15:26.352Z,54.27
2018-01-10T20:17:53.854Z,52.33
2018-01-10T20:20:21.366Z,52.63
2018-01-10T20:22:48.917Z,51.90
2018-01-10T20:25:16.534Z,51.63
2018-01-10T20:27:44.069Z,54.53
2018-01-10T20:30:11.787Z,53.53
2018-01-10T20:32:40.825Z,60.63
2018-01-10T20:35:08.408Z,57.40
2018-01-10T20:37:36.090Z,53.57
2018-01-10T20:40:03.632Z,55.60
2018-01-10T20:42:31.174Z,56.10
2018-01-10T20:44:58.777Z,54.50
2018-01-10T20:47:27.122Z,60.10
2018-01-10T20:49:54.685Z,56.80
2018-01-10T20:52:22.236Z,59.63
2018-01-10T20:54:49.807Z,57.40
2018-01-10T20:57:17.412Z,63.77
2018-01-10T20:59:45.734Z,60.20
2018-01-10T21:02:13.317Z,62.50
2018-01-10T21:04:40.838Z,58.53
2018-01-10T21:07:08.347Z,57.17
2018-01-10T21:09:35.883Z,54.10
2018-01-10T21:12:03.411Z,61.97
2018-01-10T21:14:30.952Z,55.93
2018-01-10T21:16:58.570Z,54.10
2018-01-10T21:19:26.141Z,57.43
2018-01-10T21:21:53.675Z,51.53
2018-01-10T21:24:21.198Z,52.13
2018-01-10T21:26:49.518Z,51.07
2018-01-10T21:29:17.115Z,51.10
2018-01-10T21:31:45.431Z,53.63
2018-01-10T21:34:13.144Z,57.10
2018-01-10T21:36:40.772Z,54.07
2018-01-10T21:39:08.362Z,54.47
2018-01-10T21:41:35.898Z,54.80
2018-01-10T21:44:03.544Z,52.93
2018-01-10T21:46:31.087Z,52.00
2018-01-10T21:48:59.361Z,57.00
2018-01-10T21:51:27.767Z,57.37
2018-01-10T21:53:55.304Z,56.07
2018-01-10T21:56:22.948Z,54.63
2018-01-10T21:58:50.571Z,53.70
2018-01-10T22:01:18.061Z,58.83
2018-01-10T22:03:46.204Z,58.53
2018-01-10T22:06:13.692Z,55.63
2018-01-10T22:08:41.207Z,48.63
2018-01-10T22:11:08.692Z,53.00
2018-01-10T22:13:36.204Z,54.67
2018-01-10T22:16:03.739Z,51.53
2018-01-10T22:18:31.316Z,53.10
2018-01-10T22:20:59.667Z,50.93
2018-01-10T22:23:27.285Z,50.67
2018-01-10T22:25:54.825Z,54.07
2018-01-10T22:28:22.371Z,54.23
2018-01-10T22:30:50.629Z,51.90
2018-01-10T22:33:18.944Z,53.20
2018-01-10T22:35:46.459Z,55.10
2018-01-10T22:38:13.963Z,57.03
2018-01-10T22:40:41.458Z,53.60
2018-01-10T22:43:08.964Z,50.73
2018-01-10T22:45:37.241Z,53.17
2018-01-10T22:48:05.663Z,49.97
2018-01-10T22:50:33.180Z,66.90
2018-01-10T22:53:01.431Z,76.77
2018-01-10T22:55:28.940Z,73.80
2018-01-10T22:57:56.468Z,82.93
2018-01-10T23:00:24.780Z,77.37
2018-01-10T23:02:52.295Z,81.87
2018-01-10T23:05:20.586Z,81.43
2018-01-10T23:07:48.848Z,82.27
2018-01-10T23:10:17.133Z,87.63
2018-01-10T23:12:45.425Z,98.23
2018-01-10T23:15:12.916Z,92.77
2018-01-10T23:17:40.458Z,88.37
2018-01-10T23:20:07.957Z,90.60
2018-01-10T23:22:35.456Z,87.10
2018-01-10T23:25:02.957Z,93.40
2018-01-10T23:27:30.466Z,92.43
2018-01-10T23:29:58.728Z,89.43
2018-01-10T23:32:27.035Z,93.90
2018-01-10T23:34:54.532Z,97.50
2018-01-10T23:37:22.144Z,85.00
2018-01-10T23:39:49.688Z,86.50
2018-01-10T23:42:18.123Z,87.00
2018-01-10T23:44:45.642Z,79.93
2018-01-10T23:47:13.143Z,92.37
2018-01-10T23:49:40.639Z,88.13
2018-01-10T23:52:08.939Z,79.27
2018-01-10T23:54:36.468Z,73.70
2018-01-10T23:57:04.090Z,72.03
2018-01-10T23:59:31.577Z,76.90
